createdAt,value
2023-07-03T00:00:13.556Z,15.62
2023-07-03T00:05:36.785Z,15.65
2023-07-03T00:10:40.043Z,15.63
2023-07-03T00:15:43.312Z,15.56
2023-07-03T00:20:47.053Z,15.43
2023-07-03T00:25:51.351Z,15.31
2023-07-03T00:30:54.917Z,15.15
2023-07-03T00:35:58.403Z,15.03
2023-07-03T00:41:01.632Z,14.95
2023-07-03T00:46:04.832Z,14.89
2023-07-03T00:51:10.076Z,14.84
2023-07-03T00:56:13.583Z,14.83
2023-07-03T01:01:36.901Z,14.84
2023-07-03T01:06:48.578Z,14.87
2023-07-03T01:11:52.413Z,14.87
2023-07-03T01:16:57.913Z,14.86
2023-07-03T01:22:17.356Z,14.82
2023-07-03T01:27:24.294Z,14.81
2023-07-03T01:32:31.270Z,14.77
2023-07-03T01:37:38.768Z,14.74
2023-07-03T01:42:42.642Z,14.74
2023-07-03T01:47:46.175Z,14.71
2023-07-03T01:52:56.631Z,14.72
2023-07-03T01:58:22.882Z,14.72
2023-07-03T02:03:32.580Z,14.72
2023-07-03T02:08:36.827Z,14.67
2023-07-03T02:13:39.920Z,14.54
2023-07-03T02:18:49.580Z,14.44
2023-07-03T02:23:52.798Z,14.35
2023-07-03T02:28:56.120Z,14.28
2023-07-03T02:33:59.419Z,14.22
2023-07-03T02:39:03.230Z,14.15
2023-07-03T02:44:06.545Z,14.10
2023-07-03T02:49:11.049Z,14.07
2023-07-03T02:54:14.294Z,14.09
2023-07-03T02:59:17.622Z,14.13
2023-07-03T03:04:20.940Z,14.14
2023-07-03T03:09:24.737Z,14.19
2023-07-03T03:14:28.154Z,14.24
2023-07-03T03:19:31.597Z,14.26
2023-07-03T03:24:35.600Z,14.31
2023-07-03T03:29:39.850Z,14.36
2023-07-03T03:34:43.150Z,14.43
2023-07-03T03:39:46.483Z,14.52
2023-07-03T03:44:49.676Z,14.65
2023-07-03T03:49:54.638Z,14.75
2023-07-03T03:54:58.027Z,14.87
2023-07-03T04:00:01.370Z,15.02
2023-07-03T04:05:05.010Z,15.16
2023-07-03T04:10:09.633Z,15.37
2023-07-03T04:15:12.839Z,15.53
2023-07-03T04:20:16.272Z,15.72
2023-07-03T04:25:19.527Z,15.94
2023-07-03T04:30:22.862Z,15.86
2023-07-03T04:35:26.263Z,15.76
2023-07-03T04:40:31.077Z,15.90
2023-07-03T04:45:42.063Z,16.12
2023-07-03T04:50:50.936Z,16.38
2023-07-03T04:55:54.916Z,16.68
2023-07-03T05:00:58.775Z,16.86
2023-07-03T05:06:02.098Z,17.13
2023-07-03T05:11:05.302Z,17.34
2023-07-03T05:16:08.541Z,17.42
2023-07-03T05:21:12.854Z,17.48
2023-07-03T05:26:16.069Z,17.63
2023-07-03T05:31:23.831Z,17.83
2023-07-03T05:36:27.305Z,18.05
2023-07-03T05:41:30.562Z,18.20
2023-07-03T05:46:34.025Z,18.21
2023-07-03T05:51:37.464Z,18.42
2023-07-03T05:56:40.845Z,18.65
2023-07-03T06:01:46.661Z,18.78
2023-07-03T06:06:57.142Z,18.85
2023-07-03T06:12:00.927Z,18.83
2023-07-03T06:17:04.460Z,18.78
2023-07-03T06:22:07.695Z,18.82
2023-07-03T06:27:11.152Z,18.75
2023-07-03T06:32:14.670Z,18.75
2023-07-03T06:37:18.187Z,18.66
2023-07-03T06:42:21.598Z,18.82
2023-07-03T06:47:24.938Z,19.05
2023-07-03T06:52:28.327Z,19.25
2023-07-03T06:57:31.880Z,19.43
2023-07-03T07:02:35.662Z,19.50
2023-07-03T07:07:39.399Z,19.46
2023-07-03T07:12:42.591Z,19.62
2023-07-03T07:17:51.960Z,19.84
2023-07-03T07:22:56.184Z,20.06
2023-07-03T07:27:59.596Z,20.20
2023-07-03T07:33:02.963Z,20.29
2023-07-03T07:38:06.635Z,20.37
2023-07-03T07:43:10.273Z,20.50
2023-07-03T07:48:13.762Z,20.74
2023-07-03T07:53:17.190Z,20.75
2023-07-03T07:58:20.586Z,20.97
2023-07-03T08:03:23.940Z,20.98
2023-07-03T08:08:28.552Z,20.93
2023-07-03T08:13:33.837Z,21.00
2023-07-03T08:18:37.521Z,21.39
2023-07-03T08:23:40.831Z,21.56
2023-07-03T08:28:44.286Z,21.81
2023-07-03T08:33:47.785Z,21.92
2023-07-03T08:38:51.299Z,22.09
2023-07-03T08:43:59.722Z,22.31
2023-07-03T08:49:05.585Z,22.34
2023-07-03T08:54:22.428Z,22.42
2023-07-03T08:59:26.231Z,22.15
2023-07-03T09:04:36.267Z,22.22
2023-07-03T09:10:10.849Z,22.32
2023-07-03T09:15:17.467Z,22.31
2023-07-03T09:20:24.532Z,22.12
2023-07-03T09:25:45.599Z,21.84
2023-07-03T09:30:52.280Z,21.71
2023-07-03T09:35:57.565Z,21.84
2023-07-03T09:41:08.697Z,22.17
2023-07-03T09:46:15.556Z,22.39
2023-07-03T09:51:25.749Z,22.38
2023-07-03T09:56:31.533Z,22.60
2023-07-03T10:07:07.720Z,23.10
2023-07-03T10:12:26.254Z,23.16
2023-07-03T10:17:46.999Z,23.01
2023-07-03T10:22:56.539Z,22.64
2023-07-03T10:28:08.321Z,22.83
2023-07-03T10:33:16.225Z,22.99
2023-07-03T10:38:56.400Z,22.62
2023-07-03T10:44:12.642Z,22.14
2023-07-03T10:49:27.464Z,21.89
2023-07-03T10:55:16.787Z,21.89
2023-07-03T11:00:38.328Z,22.58
2023-07-03T11:05:50.200Z,23.69
2023-07-03T11:11:11.264Z,23.86
2023-07-03T11:16:16.097Z,23.78
2023-07-03T11:32:37.282Z,23.89
2023-07-03T11:47:54.702Z,23.89
2023-07-03T11:52:58.803Z,24.70
2023-07-03T11:58:20.155Z,24.95
2023-07-03T12:03:51.111Z,24.96
2023-07-03T12:09:10.341Z,25.28
2023-07-03T12:15:02.764Z,25.56
2023-07-03T12:20:20.289Z,25.54
2023-07-03T12:25:27.305Z,25.30
2023-07-03T12:30:32.391Z,25.09
2023-07-03T12:35:44.035Z,24.79
2023-07-03T12:40:49.048Z,24.90
2023-07-03T12:45:55.102Z,25.42
2023-07-03T12:51:01.611Z,26.37
2023-07-03T12:56:10.582Z,26.73
2023-07-03T13:01:15.027Z,26.26
2023-07-03T13:06:33.327Z,25.72
2023-07-03T13:11:45.320Z,25.10
2023-07-03T13:16:51.792Z,24.62
2023-07-03T13:21:55.842Z,24.38
2023-07-03T13:27:00.215Z,25.00
2023-07-03T13:32:18.286Z,25.85
2023-07-03T13:37:27.033Z,25.91
2023-07-03T13:42:31.718Z,25.46
2023-07-03T13:47:35.106Z,25.38
2023-07-03T13:52:38.693Z,25.75
2023-07-03T13:57:42.631Z,26.14
2023-07-03T14:02:48.978Z,27.31
2023-07-03T14:07:52.865Z,27.78
2023-07-03T14:12:56.240Z,26.78
2023-07-03T14:17:59.558Z,26.71
2023-07-03T14:23:05.552Z,26.22
2023-07-03T14:28:08.829Z,26.25
2023-07-03T14:33:12.262Z,26.01
2023-07-03T14:38:15.870Z,25.78
2023-07-03T14:43:19.218Z,25.79
2023-07-03T14:48:36.658Z,26.11
2023-07-03T14:53:40.355Z,26.54
2023-07-03T14:58:43.852Z,27.10
2023-07-03T15:03:48.707Z,27.12
2023-07-03T15:08:52.732Z,27.46
2023-07-03T15:13:56.472Z,27.26
2023-07-03T15:19:08.372Z,26.97
2023-07-03T15:24:14.537Z,26.68
2023-07-03T15:29:18.566Z,26.48
2023-07-03T15:34:24.587Z,26.16
2023-07-03T15:39:27.957Z,25.84
2023-07-03T15:44:31.902Z,25.98
2023-07-03T15:49:43.907Z,26.54
2023-07-03T15:54:52.446Z,26.71
2023-07-03T15:59:56.182Z,26.28
2023-07-03T16:04:59.885Z,25.63
2023-07-03T16:10:05.251Z,25.28
2023-07-03T16:15:10.128Z,24.91
2023-07-03T16:20:16.858Z,24.60
2023-07-03T16:25:26.126Z,24.68
2023-07-03T16:30:31.286Z,24.67
2023-07-03T16:35:37.259Z,24.35
2023-07-03T16:40:43.045Z,24.24
2023-07-03T16:45:46.845Z,24.16
2023-07-03T16:50:56.514Z,24.03
2023-07-03T16:56:02.996Z,23.94
2023-07-03T17:01:09.454Z,24.36
2023-07-03T17:06:22.311Z,24.46
2023-07-03T17:11:29.327Z,24.48
2023-07-03T17:16:34.107Z,24.61
2023-07-03T17:21:38.747Z,24.53
2023-07-03T17:26:42.211Z,24.33
2023-07-03T17:31:45.575Z,24.54
2023-07-03T17:36:49.132Z,24.31
2023-07-03T17:41:54.507Z,24.01
2023-07-03T17:46:58.634Z,23.94
2023-07-03T17:52:03.198Z,24.17
2023-07-03T17:57:07.298Z,24.35
2023-07-03T18:02:12.351Z,24.32
2023-07-03T18:07:16.604Z,24.25
2023-07-03T18:12:20.209Z,24.12
2023-07-03T18:17:25.178Z,23.95
2023-07-03T18:22:28.469Z,23.83
2023-07-03T18:27:32.902Z,23.66
2023-07-03T18:32:36.312Z,23.46
2023-07-03T18:37:39.845Z,23.26
2023-07-03T18:42:43.603Z,23.10
2023-07-03T18:47:47.017Z,22.96
2023-07-03T18:52:50.907Z,22.83
2023-07-03T18:57:54.427Z,22.73
2023-07-03T19:02:58.487Z,22.57
2023-07-03T19:08:02.800Z,22.45
2023-07-03T19:13:08.962Z,22.26
2023-07-03T19:18:13.405Z,22.10
2023-07-03T19:23:21.719Z,21.97
2023-07-03T19:28:27.450Z,21.81
2023-07-03T19:33:31.661Z,21.70
2023-07-03T19:38:37.154Z,21.65
2023-07-03T19:43:41.545Z,21.59
2023-07-03T19:48:44.936Z,21.49
2023-07-03T19:53:50.316Z,21.40
2023-07-03T19:58:54.018Z,21.28
2023-07-03T20:03:57.676Z,21.11
2023-07-03T20:09:01.260Z,21.03
2023-07-03T20:14:05.373Z,20.91
2023-07-03T20:19:08.718Z,20.76
2023-07-03T20:24:14.796Z,20.61
2023-07-03T20:29:18.413Z,20.44
2023-07-03T20:34:22.627Z,20.27
2023-07-03T20:39:26.788Z,20.16
2023-07-03T20:44:30.474Z,19.98
2023-07-03T20:49:35.227Z,19.82
2023-07-03T20:54:44.411Z,19.70
2023-07-03T20:59:51.881Z,19.56
2023-07-03T21:04:56.249Z,19.47
2023-07-03T21:09:59.651Z,19.30
2023-07-03T21:15:03.551Z,19.20
2023-07-03T21:20:08.646Z,19.07
2023-07-03T21:25:12.009Z,18.87
2023-07-03T21:30:15.699Z,18.69
2023-07-03T21:35:18.940Z,18.54
2023-07-03T21:40:22.159Z,18.47
2023-07-03T21:45:25.675Z,18.38
2023-07-03T21:50:29.089Z,18.30
2023-07-03T21:55:32.702Z,18.17
2023-07-03T22:00:35.910Z,17.97
2023-07-03T22:05:39.221Z,17.80
2023-07-03T22:10:42.533Z,17.64
2023-07-03T22:15:45.895Z,17.47
2023-07-03T22:20:55.512Z,17.37
2023-07-03T22:26:00.581Z,17.27
2023-07-03T22:31:04.124Z,17.14
2023-07-03T22:36:11.377Z,17.02
2023-07-03T22:41:17.259Z,16.85
2023-07-03T22:46:20.698Z,16.74
2023-07-03T22:51:24.075Z,16.59
2023-07-03T22:56:29.128Z,16.50
2023-07-03T23:01:32.440Z,16.44
2023-07-03T23:06:35.994Z,16.36
2023-07-03T23:11:40.496Z,16.29
2023-07-03T23:16:45.032Z,16.20
2023-07-03T23:21:52.264Z,16.13
2023-07-03T23:26:56.910Z,16.11
2023-07-03T23:32:00.120Z,16.05
2023-07-03T23:37:03.413Z,15.96
2023-07-03T23:42:08.861Z,15.86
2023-07-03T23:47:12.104Z,15.76
2023-07-03T23:52:15.606Z,15.67
2023-07-03T23:57:18.910Z,15.54
